PAGINA EN CONSTRUCCIÓN

DISCULPEN POSIBLES FALLOS



Daganzo more information Daganzo


Meteosat more information blitzortung!


aviso para Lluvia  rain snow radar


Visita nuestra red de sitios de meteo:

Documentation for the template used

MeteoibericaRed estaciones Meteorologicas



Lluvia Desde: 18-11-2018 11:00 Hasta: 19-11-2018 04:59 Advertencias para: Lluvia Nivel: Amarillo info button

Informes METAR proximidad

   
LEMD - Madrid/Barajas
Actualización: 18-11-2018 18:30
lluvia, Nublado  
lluvia, Nublado  
   Viento: calma
Viento: calma
Temperatura: 10°C
Punto de rocío: 10°C
Humedad: 100%
Baromètro: 1004 hPa
Nublado: Nublado
Visibilidad: 7 km
detalles de la nube: Nubes dispersas 2300 ft,
Parcialmente nublado 3000 ft,
Nublado 3500 ft
LEMD 181830Z 00000KT 7000 -RA FEW023 BKN030 OVC035 10/10 Q1004 R88/29//95 BECMG NSW
LEBL - Barcelona/El Prat
Actualización: 18-11-2018 18:30
Parcialmente nublado  
Parcialmente nublado  
   Viento: E 33.3 km/h
Viento: E 33.3 km/h
Temperatura: 15°C
Punto de rocío: 11°C
Humedad: 77%
Baromètro: 1010 hPa
Nublado: Parcialmente nublado
Visibilidad: More than 10 km
detalles de la nube: Nubes dispersas 1500 ft,
Parcialmente nublado 4600 ft
LEBL 181830Z 08018KT 9999 FEW015 BKN046 15/11 Q1010 RERA NOSIG
LEVC - Valencia
Actualización: 18-11-2018 18:30
lluvia, Parcialmente nublado  
lluvia, Parcialmente nublado  
   Viento: ENE 16.7 km/h
Viento: ENE 16.7 km/h
Temperatura: 15°C
Punto de rocío: 13°C
Humedad: 88%
Baromètro: 1006 hPa
Nublado: Parcialmente nublado
Visibilidad: More than 10 km
detalles de la nube: Nubes dispersas 2000 ft,
Parcialmente Nublado 2500 ft,
Parcialmente nublado 5000 ft
LEVC 181830Z 07009KT 030V110 9999 -RA FEW020TCU SCT025 BKN050 15/13 Q1006 TEMPO 4000
LETO - Madrid/Torrejon
Actualización: 18-11-2018 18:34
lluvia, Parcialmente nublado  
lluvia, Parcialmente nublado  
   Viento: NE 9.3 km/h
Viento: NE 9.3 km/h
Temperatura: 10°C
Térmica: 9°C
Punto de rocío: 10°C
Humedad: 100%
Baromètro: 1004 hPa
Nublado: Parcialmente nublado
Visibilidad: 8 km
detalles de la nube: Parcialmente Nublado 3000 ft,
Parcialmente nublado 4500 ft
LETO 181834Z 05005KT 8000 -RA SCT030 BKN045 10/10 Q1004 NOSIG
LEVS - Madrid/Cuatro Vientos
Actualización: 18-11-2018 18:30
Lluvia, Nublado  
Lluvia, Nublado  
   Viento: NE 9.3 km/h
Viento: NE 9.3 km/h
Temperatura: 10°C
Térmica: 9°C
Punto de rocío: 10°C
Humedad: 100%
Baromètro: 1004 hPa
Nublado: Nublado
Visibilidad: 5 km
detalles de la nube: Nubes dispersas 500 ft,
Parcialmente Nublado 1100 ft,
Nublado 1800 ft
LEVS 181830Z 05005KT 340V110 5000 RA FEW005 SCT011 OVC018 10/10 Q1004
LEGT - Madrid/Getafe
Actualización: 18-11-2018 18:00
Lluvia, Parcialmente nublado  
Lluvia, Parcialmente nublado  
   Viento: NE 11.1 km/h
Viento: NE 11.1 km/h
Temperatura: 11°C
Punto de rocío: 10°C
Humedad: 94%
Baromètro: 1004 hPa
Nublado: Parcialmente nublado
Visibilidad: 6 km
detalles de la nube: Nubes dispersas 1600 ft,
Parcialmente Nublado 2100 ft,
Parcialmente nublado 2400 ft
LEGT 181800Z 05006KT 020V080 6000 RA FEW016 SCT021 BKN024 11/10 Q1004
LEVD - Valladolid
Actualización: 18-11-2018 18:30
Parcialmente Nublado  
Parcialmente Nublado  
   Viento: calma
Viento: calma
Temperatura: 9°C
Punto de rocío: 8°C
Humedad: 94%
Baromètro: 1003 hPa
Nublado: Parcialmente Nublado
Visibilidad: More than 10 km
detalles de la nube: Parcialmente Nublado 3000 ft
LEVD 181830Z 00000KT 9999 SCT030 09/08 Q1003
LEZG - Zaragoza
Actualización: 18-11-2018 18:30
lluvia, Nublado  
lluvia, Nublado  
   Viento: E 16.7 km/h
Viento: E 16.7 km/h
Temperatura: 12°C
Punto de rocío: 9°C
Humedad: 82%
Baromètro: 1008 hPa
Nublado: Nublado
Visibilidad: More than 10 km
detalles de la nube: Parcialmente Nublado 3000 ft,
Nublado 4500 ft
LEZG 181830Z 10009KT 9999 -RA SCT030 OVC045 12/09 Q1008
LEVT - Vitoria
Actualización: 18-11-2018 18:30
Parcialmente nublado  
Parcialmente nublado  
   Viento: ESE 20.4 km/h<br />Gust to 20.4 km/h
Viento: ESE 20.4 km/h
Gust to 20.4 km/h
Temperatura: 10°C
Térmica: 7°C
Punto de rocío: 6°C
Humedad: 76%
Baromètro: 1007 hPa
Nublado: Parcialmente nublado
Visibilidad: More than 10 km
detalles de la nube: Nubes dispersas 1000 ft,
Parcialmente nublado 2200 ft
LEVT 181830Z 12011G21KT 040V160 9999 FEW010 BKN022 10/06 Q1007
LELN - Leon/Virgen del Camino
Actualización: 18-11-2018 18:30
Parcialmente nublado  
Parcialmente nublado  
   Viento: varía 1.9 km/h
Viento: varía 1.9 km/h
Temperatura: 5°C
Punto de rocío: 4°C
Humedad: 93%
Baromètro: 1003 hPa
Nublado: Parcialmente nublado
Visibilidad: More than 10 km
detalles de la nube: Parcialmente nublado 2000 ft,
Nubes dispersas 3200 ft
LELN 181830Z VRB01KT 9999 BKN020 FEW032TCU 05/04 Q1003
LEPP - Pamplona/Noain
Actualización: 18-11-2018 18:30
Parcialmente nublado  
Parcialmente nublado  
   Viento: ESE 16.7 km/h
Viento: ESE 16.7 km/h
Temperatura: 10°C
Térmica: 8°C
Punto de rocío: 5°C
Humedad: 71%
Baromètro: 1008 hPa
Nublado: Parcialmente nublado
Visibilidad: More than 10 km
detalles de la nube: Nubes dispersas 1800 ft,
Parcialmente nublado 3600 ft
LEPP 181830Z 11009KT 080V140 9999 FEW018 BKN036 10/05 Q1008
LEBB - Bilbao/Sondica
Actualización: 18-11-2018 18:30
Parcialmente nublado  
Parcialmente nublado  
   Viento: ESE 7.4 km/h
Viento: ESE 7.4 km/h
Temperatura: 13°C
Punto de rocío: 9°C
Humedad: 77%
Baromètro: 1007 hPa
Nublado: Parcialmente nublado
Visibilidad: More than 10 km
detalles de la nube: Nubes dispersas 3000 ft,
Parcialmente Nublado 4500 ft,
Parcialmente nublado 7000 ft
LEBB 181830Z 11004KT 080V150 9999 FEW030 SCT045 BKN070 13/09 Q1007 TEMPO RA

Guión original por  Saratoga-weather.org Adaptado para la plantilla por  Weerstation Leuven

Usted encontrará nuestra información del tiempo también en:

WeatherCloud

Weather Underground

Iberian Peninsula Weather Network

AWEKAS

Citizen Weather Observer Program (CWOP)